Time;durP1;ratioP1;P1;durP2;ratioP2;P2;SDS_P1;SDS_P2;PMS_P1;PMS_P2;Temp;Humidity;BMP_temperature;BMP_pressure;BME280_temperature;BME280_humidity;BME280_pressure;Samples;Min_cycle;Max_cycle;Signal;HPM_P1;HPM_P2
2021/10/07 03:22:49;;;;;;;62.65;19.08;;;9.10;99.90;;;;;;5012375;23;20068;-95
2021/10/07 03:40:48;;;;;;;110.60;19.15;;;9.10;99.90;;;;;;4803628;29;20050;-94
2021/10/07 03:43:16;;;;;;;84.90;18.02;;;9.20;99.90;;;;;;4808668;29;20056;-95
2021/10/07 03:46:20;;;;;;;192.43;22.05;;;9.20;99.90;;;;;;4862251;29;20093;-95
2021/10/07 03:49:28;;;;;;;98.97;20.48;;;9.20;99.90;;;;;;4859745;29;20072;-94
2021/10/07 03:55:35;;;;;;;58.38;17.35;;;9.20;99.90;;;;;;4843687;29;20030;-95
2021/10/07 03:58:08;;;;;;;85.03;18.13;;;9.20;99.90;;;;;;4810500;29;20062;-93
2021/10/07 04:04:48;;;;;;;81.03;16.80;;;9.30;99.90;;;;;;4818100;29;20164;-96
2021/10/07 04:08:04;;;;;;;67.53;14.93;;;9.30;99.90;;;;;;4815887;29;20058;-93
2021/10/07 04:10:55;;;;;;;61.03;16.67;;;9.30;99.90;;;;;;4783122;29;20051;-95
2021/10/07 04:14:37;;;;;;;;;;;;;;;;;;;;;
2021/10/07 04:21:23;;;;;;;110.05;16.45;;;9.30;99.90;;;;;;4784619;30;20046;-94
2021/10/07 04:24:12;;;;;;;51.47;17.50;;;9.40;99.90;;;;;;4782968;29;20055;-94
2021/10/07 04:26:53;;;;;;;92.68;19.52;;;9.40;99.90;;;;;;4821396;29;20062;-94
2021/10/07 04:30:13;;;;;;;100.32;17.85;;;9.40;99.90;;;;;;4837084;29;20061;-94
2021/10/07 04:33:02;;;;;;;176.40;17.88;;;9.40;99.90;;;;;;4833147;29;20050;-94
2021/10/07 04:35:46;;;;;;;73.18;14.75;;;9.30;99.90;;;;;;4818210;29;20050;-94
2021/10/07 04:38:34;;;;;;;55.55;16.95;;;9.30;99.90;;;;;;4833905;29;20086;-94
2021/10/07 04:41:33;;;;;;;122.10;17.17;;;9.30;99.90;;;;;;4846350;29;20077;-94
2021/10/07 04:44:02;;;;;;;133.18;18.00;;;9.40;99.90;;;;;;4833976;29;20043;-92
2021/10/07 04:46:52;;;;;;;53.72;14.57;;;9.30;99.90;;;;;;4822389;29;20033;-93
2021/10/07 04:49:41;;;;;;;105.60;16.75;;;9.30;99.90;;;;;;4842709;29;20053;-94
2021/10/07 04:52:13;;;;;;;63.38;16.05;;;9.40;99.90;;;;;;4857899;29;20046;-94
2021/10/07 04:54:54;;;;;;;63.75;16.25;;;9.40;99.90;;;;;;4869332;29;20555;-92
2021/10/07 04:57:20;;;;;;;123.38;18.35;;;9.40;99.90;;;;;;4844438;29;20041;-95
2021/10/07 04:59:54;;;;;;;167.85;20.85;;;9.40;99.90;;;;;;4859380;29;20146;-94
2021/10/07 05:02:38;;;;;;;96.95;18.13;;;9.40;99.90;;;;;;4869624;29;20056;-93
2021/10/07 05:05:17;;;;;;;119.68;19.50;;;9.40;99.90;;;;;;4849340;29;20045;-94
2021/10/07 05:08:31;;;;;;;64.88;17.70;;;9.40;99.90;;;;;;4847348;29;20063;-94
2021/10/07 05:10:52;;;;;;;88.35;18.98;;;9.40;99.90;;;;;;4879920;29;20056;-92
2021/10/07 05:13:37;;;;;;;107.10;20.55;;;9.50;99.90;;;;;;4879120;29;20108;-92
2021/10/07 05:21:26;;;;;;;122.97;21.70;;;9.50;99.90;;;;;;4871555;29;20056;-82
2021/10/07 05:23:52;;;;;;;75.07;18.70;;;9.60;99.90;;;;;;4861543;29;20041;-83
2021/10/07 05:26:18;;;;;;;73.93;18.83;;;9.60;99.90;;;;;;4834156;29;20041;-82
2021/10/07 05:28:44;;;;;;;119.50;19.77;;;9.60;99.90;;;;;;4859980;29;20037;-82
2021/10/07 05:31:10;;;;;;;77.97;17.80;;;9.60;99.90;;;;;;4830609;29;20049;-83
2021/10/07 05:33:36;;;;;;;131.85;22.55;;;9.60;99.90;;;;;;4834045;29;20041;-83
2021/10/07 05:36:02;;;;;;;155.98;19.70;;;9.60;99.90;;;;;;4823755;29;20052;-82
2021/10/07 05:38:29;;;;;;;142.70;18.50;;;9.60;99.90;;;;;;4815579;29;20045;-82
2021/10/07 05:40:55;;;;;;;125.28;18.50;;;9.60;99.90;;;;;;4828593;29;20054;-82
2021/10/07 05:43:21;;;;;;;133.80;18.55;;;9.60;99.90;;;;;;4831723;29;20040;-82
2021/10/07 05:45:47;;;;;;;286.98;23.75;;;9.60;99.90;;;;;;4840918;29;20041;-82
2021/10/07 05:48:13;;;;;;;213.30;20.40;;;9.60;99.90;;;;;;4847964;29;20053;-82
2021/10/07 05:50:39;;;;;;;182.88;20.98;;;9.60;99.90;;;;;;4841845;29;20152;-82
2021/10/07 05:53:05;;;;;;;108.70;19.58;;;9.60;99.90;;;;;;4826911;29;20041;-81
2021/10/07 05:55:31;;;;;;;93.18;18.00;;;9.60;99.90;;;;;;4838314;29;20037;-81
2021/10/07 05:57:57;;;;;;;107.50;17.83;;;9.60;99.90;;;;;;4814661;29;20464;-82
2021/10/07 06:00:23;;;;;;;197.93;20.02;;;9.60;99.90;;;;;;4829635;29;20140;-82
2021/10/07 06:02:49;;;;;;;99.55;17.63;;;9.60;99.90;;;;;;4837764;29;20207;-82
2021/10/07 06:05:15;;;;;;;90.68;17.02;;;9.60;99.90;;;;;;4826562;29;20396;-82
2021/10/07 06:07:41;;;;;;;415.95;23.83;;;9.60;99.90;;;;;;4825435;29;20529;-81
2021/10/07 06:10:08;;;;;;;199.15;18.27;;;9.60;99.90;;;;;;4827197;29;20053;-82
2021/10/07 06:12:34;;;;;;;91.93;15.38;;;9.60;99.90;;;;;;4836674;29;20436;-82
2021/10/07 06:15:00;;;;;;;198.85;17.27;;;9.60;99.90;;;;;;4823752;29;20144;-81
2021/10/07 06:17:26;;;;;;;127.75;18.13;;;9.60;99.90;;;;;;4831026;29;20192;-82
2021/10/07 06:19:56;;;;;;;121.65;18.00;;;9.60;99.90;;;;;;4864263;29;20082;-82
2021/10/07 06:22:22;;;;;;;367.25;20.92;;;9.60;99.90;;;;;;4850259;29;20041;-83
2021/10/07 06:24:48;;;;;;;295.90;20.63;;;9.60;99.90;;;;;;4864805;29;20068;-82
2021/10/07 06:27:14;;;;;;;196.18;16.95;;;9.60;99.90;;;;;;4840035;29;20060;-82
2021/10/07 06:29:40;;;;;;;230.48;17.05;;;9.60;99.90;;;;;;4825396;29;20101;-83
2021/10/07 06:32:06;;;;;;;269.05;20.15;;;9.70;99.90;;;;;;4830294;29;20045;-82
2021/10/07 06:34:31;;;;;;;135.00;16.73;;;9.70;99.90;;;;;;4831045;29;20096;-81
2021/10/07 06:36:57;;;;;;;352.98;18.77;;;9.70;99.90;;;;;;4825749;29;21543;-83
2021/10/07 06:39:23;;;;;;;501.77;24.50;;;9.70;99.90;;;;;;4840111;29;20650;-83
2021/10/07 06:41:49;;;;;;;417.63;21.08;;;9.70;99.90;;;;;;4843285;29;20435;-83
2021/10/07 06:44:14;;;;;;;238.55;17.48;;;9.60;99.90;;;;;;4866966;29;20040;-83
2021/10/07 06:46:40;;;;;;;201.02;18.23;;;9.60;99.90;;;;;;4847784;29;20088;-82
2021/10/07 06:49:06;;;;;;;95.13;14.95;;;9.60;99.90;;;;;;4841227;29;20069;-82
2021/10/07 06:51:32;;;;;;;76.25;13.90;;;9.60;99.90;;;;;;4844039;29;20036;-82
2021/10/07 06:54:00;;;;;;;86.82;13.38;;;9.70;99.90;;;;;;4826408;29;20486;-82
2021/10/07 06:56:26;;;;;;;141.43;15.55;;;9.70;99.90;;;;;;4812230;29;21580;-82
2021/10/07 06:58:52;;;;;;;152.73;16.88;;;9.70;99.90;;;;;;4831020;29;20059;-83
2021/10/07 07:01:26;;;;;;;290.42;18.10;;;9.70;99.90;;;;;;4844888;29;20045;-83
2021/10/07 07:03:54;;;;;;;161.80;16.65;;;9.70;99.90;;;;;;4842530;29;20041;-83
2021/10/07 07:06:24;;;;;;;253.02;19.15;;;9.70;99.90;;;;;;4857196;29;20076;-82
2021/10/07 07:08:51;;;;;;;179.88;16.85;;;9.70;99.90;;;;;;4822962;29;20060;-82
2021/10/07 07:11:17;;;;;;;184.48;17.00;;;9.70;99.90;;;;;;4841858;29;20037;-83
2021/10/07 07:13:44;;;;;;;169.13;17.40;;;9.70;99.90;;;;;;4825508;29;20094;-83
2021/10/07 07:16:11;;;;;;;244.18;20.17;;;9.70;99.90;;;;;;4830532;29;20041;-83
2021/10/07 07:18:37;;;;;;;194.63;18.98;;;9.70;99.90;;;;;;4844455;29;20182;-83
2021/10/07 07:21:03;;;;;;;168.40;18.92;;;9.70;99.90;;;;;;4805771;29;1123823;-83
2021/10/07 07:23:29;;;;;;;79.03;17.35;;;9.70;99.90;;;;;;4816757;29;20044;-83
2021/10/07 07:25:55;;;;;;;156.70;20.85;;;9.70;99.90;;;;;;4827737;29;20041;-83
2021/10/07 07:28:21;;;;;;;96.25;17.50;;;9.70;99.90;;;;;;4834096;29;20049;-83
2021/10/07 07:30:49;;;;;;;293.42;25.17;;;9.70;99.90;;;;;;4823551;29;20493;-83
2021/10/07 07:33:17;;;;;;;138.32;21.77;;;9.80;99.90;;;;;;4848129;29;20107;-82
2021/10/07 07:35:43;;;;;;;227.65;23.77;;;9.80;99.90;;;;;;4849925;29;20077;-83
2021/10/07 07:38:09;;;;;;;159.30;22.13;;;9.80;99.90;;;;;;4843758;29;20785;-82
2021/10/07 07:40:35;;;;;;;136.70;22.20;;;9.90;99.90;;;;;;4836244;29;20052;-82
2021/10/07 07:43:01;;;;;;;84.18;20.52;;;9.90;99.90;;;;;;4854647;29;20048;-82
2021/10/07 07:45:26;;;;;;;104.68;22.30;;;9.90;99.90;;;;;;4836358;29;20041;-82
2021/10/07 07:47:52;;;;;;;125.03;21.33;;;9.90;99.90;;;;;;4867685;29;20048;-82
2021/10/07 07:50:19;;;;;;;104.15;21.10;;;10.00;99.90;;;;;;4843164;29;20089;-82
2021/10/07 07:52:49;;;;;;;175.15;21.80;;;10.00;99.90;;;;;;4846156;29;20500;-82
2021/10/07 07:55:16;;;;;;;88.53;20.15;;;10.00;99.90;;;;;;4833820;29;20142;-82
2021/10/07 07:57:42;;;;;;;136.13;22.15;;;10.00;99.90;;;;;;4849350;29;20068;-82
2021/10/07 08:00:08;;;;;;;90.35;20.13;;;10.00;99.90;;;;;;4846323;29;20132;-83
2021/10/07 08:02:34;;;;;;;232.43;24.45;;;10.00;99.90;;;;;;4830520;29;20181;-83
2021/10/07 08:05:00;;;;;;;106.60;18.63;;;10.10;99.90;;;;;;4830276;29;20135;-83
2021/10/07 08:07:27;;;;;;;63.92;17.38;;;10.00;99.90;;;;;;4833026;29;20047;-83
2021/10/07 08:09:53;;;;;;;61.92;19.05;;;10.00;99.90;;;;;;4815842;29;20262;-83
2021/10/07 08:12:19;;;;;;;70.78;19.48;;;10.00;99.90;;;;;;4844606;29;20045;-81
2021/10/07 08:14:48;;;;;;;79.22;18.63;;;10.10;99.90;;;;;;4853976;29;20111;-83
2021/10/07 08:17:14;;;;;;;87.70;17.98;;;10.10;99.90;;;;;;4837260;29;20477;-83
2021/10/07 08:19:42;;;;;;;91.43;19.10;;;10.10;99.90;;;;;;4846409;29;20055;-83
2021/10/07 08:22:08;;;;;;;82.18;19.80;;;10.10;99.90;;;;;;4847185;29;20037;-83
2021/10/07 08:24:35;;;;;;;120.63;20.23;;;10.00;99.90;;;;;;4845491;29;20102;-84
2021/10/07 08:27:02;;;;;;;86.80;20.50;;;10.10;99.90;;;;;;4825730;29;20052;-83
2021/10/07 08:29:29;;;;;;;213.90;21.60;;;10.10;99.90;;;;;;4847033;29;20068;-84
2021/10/07 08:31:54;;;;;;;105.57;19.92;;;10.10;99.90;;;;;;4828026;29;20034;-84
2021/10/07 08:34:20;;;;;;;103.93;19.80;;;10.10;99.90;;;;;;4845685;29;20064;-83
2021/10/07 08:37:05;;;;;;;94.65;17.45;;;10.10;99.90;;;;;;4841854;29;20041;-82
2021/10/07 08:39:31;;;;;;;110.63;19.83;;;10.10;99.90;;;;;;4824517;29;20064;-83
2021/10/07 08:41:58;;;;;;;67.10;17.60;;;10.10;99.90;;;;;;4827466;29;20036;-82
2021/10/07 08:44:24;;;;;;;115.78;19.42;;;10.10;99.90;;;;;;4841000;29;20694;-81
2021/10/07 08:46:53;;;;;;;68.65;19.00;;;10.10;99.90;;;;;;4831979;29;20033;-80
2021/10/07 08:49:23;;;;;;;60.78;18.35;;;10.20;99.90;;;;;;4857453;29;20050;-81
2021/10/07 08:51:50;;;;;;;61.15;18.55;;;10.20;99.90;;;;;;4827172;29;20092;-83
2021/10/07 08:54:17;;;;;;;64.03;18.63;;;10.30;99.90;;;;;;4843482;29;20076;-82
2021/10/07 08:56:43;;;;;;;91.22;19.65;;;10.30;99.90;;;;;;4845217;29;20041;-82
2021/10/07 08:59:09;;;;;;;68.07;19.95;;;10.30;99.90;;;;;;4831749;29;20029;-82
2021/10/07 09:01:39;;;;;;;63.80;18.80;;;10.30;99.90;;;;;;4859329;29;20056;-83
2021/10/07 09:04:28;;;;;;;98.50;20.63;;;10.40;99.90;;;;;;4840234;29;20042;-83
2021/10/07 09:06:55;;;;;;;116.65;21.10;;;10.40;99.90;;;;;;4842041;29;20056;-83
2021/10/07 09:09:21;;;;;;;91.70;20.60;;;10.40;99.90;;;;;;4841700;29;20192;-82
2021/10/07 09:11:56;;;;;;;65.47;18.15;;;10.40;99.90;;;;;;4825605;29;20073;-82
2021/10/07 09:14:27;;;;;;;110.78;20.30;;;10.40;99.90;;;;;;4846209;29;20053;-82
2021/10/07 09:16:54;;;;;;;85.70;19.38;;;10.50;99.90;;;;;;4841679;29;20054;-81
2021/10/07 09:19:31;;;;;;;119.70;20.30;;;10.50;99.90;;;;;;4860729;29;20033;-83
2021/10/07 09:22:11;;;;;;;76.90;18.48;;;10.50;99.90;;;;;;4846217;29;20041;-81
2021/10/07 09:24:38;;;;;;;79.97;19.52;;;10.50;99.90;;;;;;4856726;29;20068;-81
2021/10/07 09:27:16;;;;;;;89.40;20.08;;;10.50;99.90;;;;;;4856079;29;20053;-83
2021/10/07 09:29:57;;;;;;;120.15;21.42;;;10.50;99.90;;;;;;4841257;29;20047;-83
2021/10/07 09:32:49;;;;;;;74.20;19.77;;;10.50;99.90;;;;;;4855561;29;20540;-83
2021/10/07 09:35:18;;;;;;;69.60;19.15;;;10.50;99.90;;;;;;4852714;29;20575;-82
2021/10/07 09:37:46;;;;;;;97.03;21.40;;;10.50;99.90;;;;;;4854924;29;20049;-82
2021/10/07 09:40:17;;;;;;;78.40;22.23;;;10.60;99.90;;;;;;4847466;29;20049;-83
2021/10/07 09:42:52;;;;;;;116.80;23.40;;;10.60;99.90;;;;;;4860989;29;20037;-83
2021/10/07 09:45:23;;;;;;;90.82;22.15;;;10.60;99.90;;;;;;4861567;29;20088;-83
2021/10/07 09:47:58;;;;;;;87.93;22.70;;;10.60;99.90;;;;;;4846280;29;20045;-82
2021/10/07 09:50:34;;;;;;;113.03;24.20;;;10.70;99.90;;;;;;4852352;29;20087;-82
2021/10/07 09:53:03;;;;;;;107.25;23.95;;;10.70;99.90;;;;;;4846695;29;20045;-82
2021/10/07 09:55:34;;;;;;;106.13;24.42;;;10.70;99.90;;;;;;4841109;29;20105;-83
2021/10/07 09:58:11;;;;;;;111.15;24.20;;;10.70;99.90;;;;;;4875438;29;20053;-82
2021/10/07 10:00:43;;;;;;;86.28;23.08;;;10.70;99.90;;;;;;4850639;29;20090;-84
2021/10/07 10:03:10;;;;;;;91.10;23.42;;;10.80;99.90;;;;;;4839239;29;20059;-83
2021/10/07 10:05:38;;;;;;;123.50;25.15;;;10.80;99.90;;;;;;4841150;29;20163;-82
2021/10/07 10:08:05;;;;;;;106.05;24.80;;;10.80;99.90;;;;;;4842788;29;20051;-83
2021/10/07 10:10:31;;;;;;;98.45;25.48;;;10.80;99.90;;;;;;4842295;29;21807;-83
2021/10/07 10:12:57;;;;;;;114.40;27.13;;;10.80;99.90;;;;;;4838986;29;20127;-83
2021/10/07 10:15:23;;;;;;;95.55;26.60;;;10.80;99.90;;;;;;4825951;29;20041;-82
2021/10/07 10:17:51;;;;;;;84.15;25.63;;;10.80;99.90;;;;;;4832200;29;20396;-82
2021/10/07 10:20:24;;;;;;;75.50;24.55;;;10.90;99.90;;;;;;4840622;29;20073;-84
2021/10/07 10:23:23;;;;;;;103.40;28.95;;;10.90;99.90;;;;;;4854972;29;20125;-81
2021/10/07 10:26:10;;;;;;;107.10;28.42;;;11.00;99.90;;;;;;4833902;29;20045;-83
2021/10/07 10:28:42;;;;;;;106.25;26.83;;;11.00;99.90;;;;;;4838916;29;20048;-83
2021/10/07 10:31:13;;;;;;;83.22;26.15;;;11.00;99.90;;;;;;4858378;29;20068;-83
2021/10/07 10:33:43;;;;;;;95.82;27.38;;;11.00;99.90;;;;;;4838826;29;20074;-83
2021/10/07 10:36:24;;;;;;;105.78;29.73;;;11.00;99.90;;;;;;4838676;29;20101;-82
2021/10/07 10:39:18;;;;;;;92.93;28.40;;;11.10;99.90;;;;;;4842970;29;20101;-82
2021/10/07 10:41:51;;;;;;;90.95;28.10;;;11.10;99.90;;;;;;4858828;29;20041;-82
2021/10/07 10:44:26;;;;;;;109.05;31.50;;;11.10;99.90;;;;;;4855961;29;20573;-82
2021/10/07 10:47:08;;;;;;;84.13;28.95;;;11.20;99.90;;;;;;4846366;29;20052;-83
2021/10/07 10:49:52;;;;;;;111.63;32.45;;;11.20;99.90;;;;;;4871668;29;20045;-82
2021/10/07 10:52:20;;;;;;;94.97;29.75;;;11.20;99.90;;;;;;4841310;29;20073;-82
2021/10/07 10:55:07;;;;;;;99.45;30.38;;;11.20;99.90;;;;;;4849497;29;20042;-81
2021/10/07 10:57:40;;;;;;;88.28;31.00;;;11.20;99.90;;;;;;4856548;29;20045;-82
2021/10/07 11:00:09;;;;;;;93.15;31.48;;;11.30;99.90;;;;;;4859737;29;20064;-81
2021/10/07 11:02:36;;;;;;;90.80;30.90;;;11.30;99.90;;;;;;4850387;29;20101;-82
2021/10/07 11:05:25;;;;;;;87.65;29.77;;;11.40;99.90;;;;;;4864355;29;20591;-81
2021/10/07 11:08:09;;;;;;;77.63;28.05;;;11.40;99.90;;;;;;4848840;29;20040;-82
2021/10/07 11:10:40;;;;;;;85.65;28.10;;;11.40;99.90;;;;;;4859585;29;20048;-82
2021/10/07 11:13:15;;;;;;;93.13;30.20;;;11.40;99.90;;;;;;4845052;29;20304;-81
2021/10/07 11:15:41;;;;;;;85.93;30.52;;;11.40;99.90;;;;;;4845165;29;20045;-81
2021/10/07 11:18:06;;;;;;;89.65;30.85;;;11.50;99.90;;;;;;4832055;29;20051;-81
2021/10/07 11:20:34;;;;;;;89.07;31.80;;;11.50;99.90;;;;;;4832657;29;20038;-81
2021/10/07 11:23:04;;;;;;;95.28;31.52;;;11.50;99.90;;;;;;4861473;29;20048;-81
2021/10/07 11:25:31;;;;;;;88.25;32.15;;;11.60;99.90;;;;;;4848077;29;20045;-80
2021/10/07 11:27:57;;;;;;;76.30;31.80;;;11.60;99.90;;;;;;4862332;29;20042;-81
2021/10/07 11:30:24;;;;;;;80.28;31.45;;;11.70;99.90;;;;;;4867638;29;20108;-81
2021/10/07 11:32:50;;;;;;;76.15;32.15;;;11.70;99.90;;;;;;4851188;29;20400;-81
2021/10/07 11:35:19;;;;;;;78.25;32.17;;;11.70;99.90;;;;;;4857672;29;20477;-81
2021/10/07 11:37:59;;;;;;;82.05;34.78;;;11.70;99.90;;;;;;4887604;29;20062;-80
2021/10/07 11:40:37;;;;;;;78.93;34.03;;;11.70;99.90;;;;;;4868733;29;20051;-81
2021/10/07 11:43:09;;;;;;;85.82;34.53;;;11.70;99.90;;;;;;4866040;29;20056;-81
2021/10/07 11:45:41;;;;;;;73.28;32.15;;;11.80;99.90;;;;;;4852478;29;20065;-83
2021/10/07 11:48:07;;;;;;;84.43;33.05;;;11.70;99.90;;;;;;4858920;29;20048;-83
2021/10/07 11:50:42;;;;;;;81.90;34.88;;;11.70;99.90;;;;;;4848317;29;20527;-82
2021/10/07 11:53:10;;;;;;;91.85;33.85;;;11.70;99.90;;;;;;4880180;29;20060;-82
2021/10/07 11:55:39;;;;;;;77.47;34.38;;;11.70;99.90;;;;;;4852188;29;20109;-81
2021/10/07 11:58:07;;;;;;;81.20;35.17;;;11.70;99.90;;;;;;4853565;29;20045;-81
2021/10/07 12:00:48;;;;;;;78.85;36.20;;;11.70;99.90;;;;;;4879503;29;20070;-82
2021/10/07 12:03:16;;;;;;;74.70;34.72;;;11.80;99.90;;;;;;4858301;29;20507;-81
2021/10/07 12:05:43;;;;;;;79.22;36.05;;;11.80;99.90;;;;;;4846658;29;20046;-81
2021/10/07 12:08:13;;;;;;;69.40;34.33;;;11.80;99.90;;;;;;4850553;29;20041;-82
2021/10/07 12:10:42;;;;;;;79.75;35.63;;;11.80;99.90;;;;;;4861521;29;22156;-82
2021/10/07 12:13:19;;;;;;;78.05;35.03;;;11.80;99.90;;;;;;4841375;29;20048;-82
2021/10/07 12:15:48;;;;;;;66.18;34.45;;;11.90;99.90;;;;;;4860613;29;20048;-81
2021/10/07 12:18:15;;;;;;;63.13;32.75;;;11.90;99.90;;;;;;4844207;29;20102;-82
2021/10/07 12:20:54;;;;;;;64.00;32.97;;;12.00;99.90;;;;;;4834576;29;20042;-82
2021/10/07 12:23:20;;;;;;;64.28;34.03;;;12.00;99.90;;;;;;4861585;29;20123;-82
2021/10/07 12:25:45;;;;;;;66.97;33.70;;;12.10;99.90;;;;;;4814783;29;20184;-83
2021/10/07 12:28:16;;;;;;;67.30;33.78;;;12.10;99.90;;;;;;4836354;29;20057;-82
2021/10/07 12:31:18;;;;;;;62.75;33.78;;;12.10;99.90;;;;;;4845018;29;20596;-82
2021/10/07 12:34:00;;;;;;;63.22;31.75;;;12.10;99.90;;;;;;4841481;29;20123;-82
2021/10/07 12:36:44;;;;;;;46.38;29.70;;;12.10;99.90;;;;;;4857261;29;20160;-81
2021/10/07 12:39:22;;;;;;;56.88;31.38;;;12.20;99.90;;;;;;4866035;29;20417;-82
2021/10/07 12:41:51;;;;;;;44.45;28.70;;;12.30;99.90;;;;;;4847771;29;20033;-83
2021/10/07 12:44:20;;;;;;;47.72;29.95;;;12.40;99.90;;;;;;4843964;29;20045;-82
2021/10/07 12:46:51;;;;;;;49.17;30.48;;;12.30;99.90;;;;;;4852221;29;20042;-82
2021/10/07 12:49:40;;;;;;;57.08;32.80;;;12.30;99.90;;;;;;4847047;29;20104;-82
2021/10/07 12:52:37;;;;;;;53.90;32.50;;;12.30;99.90;;;;;;4849699;29;20053;-85
2021/10/07 12:55:08;;;;;;;59.72;32.80;;;12.30;99.90;;;;;;4851117;29;20415;-83
2021/10/07 12:57:34;;;;;;;53.97;32.38;;;12.30;99.90;;;;;;4846747;29;20041;-83
2021/10/07 13:00:00;;;;;;;54.40;32.17;;;12.20;99.90;;;;;;4873204;29;20045;-83
2021/10/07 13:02:30;;;;;;;58.75;34.00;;;12.30;99.90;;;;;;4850321;29;20432;-83
2021/10/07 13:04:56;;;;;;;60.00;32.78;;;12.20;99.90;;;;;;4864813;29;20053;-83
2021/10/07 13:07:26;;;;;;;51.03;31.63;;;12.30;99.90;;;;;;4847689;29;20390;-83
2021/10/07 13:09:52;;;;;;;71.88;36.83;;;12.20;99.90;;;;;;4866581;29;20041;-82
2021/10/07 13:12:19;;;;;;;66.05;36.17;;;12.30;99.90;;;;;;4845887;29;20052;-82
2021/10/07 13:14:56;;;;;;;57.83;35.92;;;12.30;99.90;;;;;;4853249;29;20052;-82
2021/10/07 13:17:22;;;;;;;57.35;37.15;;;12.30;99.90;;;;;;4869719;29;20052;-82
2021/10/07 13:19:48;;;;;;;61.08;36.85;;;12.30;99.90;;;;;;4833864;29;20038;-83
2021/10/07 13:22:14;;;;;;;59.33;36.92;;;12.30;99.90;;;;;;4860668;29;20044;-82
2021/10/07 13:24:41;;;;;;;54.08;34.08;;;12.40;99.90;;;;;;4862329;29;20041;-81
2021/10/07 13:27:09;;;;;;;48.97;31.92;;;12.40;99.90;;;;;;4858955;29;20496;-82
2021/10/07 13:29:36;;;;;;;49.70;32.90;;;12.40;99.90;;;;;;4850914;29;20066;-82
2021/10/07 13:32:03;;;;;;;49.50;31.80;;;12.40;99.90;;;;;;4847860;29;20655;-83
2021/10/07 13:34:29;;;;;;;44.67;30.10;;;12.50;99.90;;;;;;4859317;29;20072;-83
2021/10/07 13:36:55;;;;;;;46.90;29.02;;;12.50;99.90;;;;;;4862552;29;20501;-84
2021/10/07 13:39:21;;;;;;;52.58;30.50;;;12.50;99.90;;;;;;4851949;29;20528;-82
2021/10/07 13:41:47;;;;;;;42.17;29.40;;;12.50;99.90;;;;;;4835388;29;20251;-83
2021/10/07 13:44:13;;;;;;;40.25;28.45;;;12.50;99.90;;;;;;4852873;29;20038;-82
2021/10/07 13:46:39;;;;;;;42.17;28.33;;;12.50;99.90;;;;;;4837330;29;20049;-82
2021/10/07 13:49:05;;;;;;;39.88;28.35;;;12.60;99.90;;;;;;4850248;29;20051;-82
2021/10/07 13:51:32;;;;;;;44.22;28.90;;;12.50;99.90;;;;;;4848527;29;20067;-82
2021/10/07 13:53:58;;;;;;;41.90;29.05;;;12.50;99.90;;;;;;4841047;29;20359;-83
2021/10/07 13:56:25;;;;;;;42.25;28.17;;;12.50;99.90;;;;;;4811864;29;20049;-82
2021/10/07 13:58:51;;;;;;;38.72;27.20;;;12.50;99.90;;;;;;4825557;29;20239;-82
2021/10/07 14:01:17;;;;;;;45.33;29.83;;;12.50;99.90;;;;;;4844805;29;20597;-83
2021/10/07 14:03:43;;;;;;;41.40;28.23;;;12.50;99.90;;;;;;4851735;29;20053;-82
2021/10/07 14:06:10;;;;;;;39.00;27.77;;;12.50;99.90;;;;;;4835256;29;20052;-83
2021/10/07 14:08:36;;;;;;;44.55;29.70;;;12.50;99.90;;;;;;4852431;29;20033;-82
2021/10/07 14:11:06;;;;;;;40.17;28.20;;;12.50;99.90;;;;;;4845866;29;20048;-83
2021/10/07 14:13:34;;;;;;;43.10;26.65;;;12.40;99.90;;;;;;4846056;29;20238;-84
2021/10/07 14:16:01;;;;;;;42.63;29.52;;;12.40;99.90;;;;;;4851946;29;20169;-83
2021/10/07 14:18:27;;;;;;;47.55;31.20;;;12.40;99.90;;;;;;4867660;29;20048;-83
2021/10/07 14:20:53;;;;;;;48.50;32.58;;;12.40;99.90;;;;;;4834765;29;20143;-83
2021/10/07 14:23:20;;;;;;;47.03;32.22;;;12.40;99.90;;;;;;4833531;29;20033;-84
2021/10/07 14:25:46;;;;;;;47.38;32.95;;;12.40;99.90;;;;;;4847162;29;20128;-83
2021/10/07 14:28:12;;;;;;;50.00;32.08;;;12.40;99.90;;;;;;4863310;29;20397;-84
2021/10/07 14:30:37;;;;;;;44.85;29.95;;;12.30;99.90;;;;;;4833725;29;20093;-83
2021/10/07 14:33:04;;;;;;;51.15;32.78;;;12.30;99.90;;;;;;4831724;29;20101;-83
2021/10/07 14:35:30;;;;;;;46.63;31.42;;;12.30;99.90;;;;;;4843223;29;20210;-82
2021/10/07 14:37:56;;;;;;;44.08;30.98;;;12.30;99.90;;;;;;4835294;29;20113;-82
2021/10/07 14:40:24;;;;;;;45.00;30.90;;;12.30;99.90;;;;;;4830659;29;20413;-82
2021/10/07 14:42:51;;;;;;;44.45;31.55;;;12.30;99.90;;;;;;4856659;29;20537;-83
2021/10/07 14:45:18;;;;;;;47.90;32.33;;;12.20;99.90;;;;;;4850760;29;20049;-83
2021/10/07 14:47:44;;;;;;;44.72;32.58;;;12.30;99.90;;;;;;4840177;29;20128;-83
2021/10/07 14:50:10;;;;;;;51.10;33.92;;;12.30;99.90;;;;;;4833343;29;20077;-82
2021/10/07 14:52:36;;;;;;;43.15;32.72;;;12.20;99.90;;;;;;4846469;29;20056;-83
2021/10/07 14:55:09;;;;;;;43.92;31.92;;;12.30;99.90;;;;;;4860844;29;20055;-82
2021/10/07 14:57:35;;;;;;;46.58;33.38;;;12.30;99.90;;;;;;4857480;29;20041;-83
2021/10/07 15:00:04;;;;;;;45.40;33.30;;;12.30;99.90;;;;;;4853349;29;20129;-83
2021/10/07 15:02:31;;;;;;;45.58;33.40;;;12.20;99.90;;;;;;4842221;29;20045;-83
2021/10/07 15:04:58;;;;;;;49.75;33.30;;;12.30;99.90;;;;;;4836258;29;20052;-84
2021/10/07 15:07:24;;;;;;;46.65;32.17;;;12.20;99.90;;;;;;4866253;29;20058;-84
2021/10/07 15:09:50;;;;;;;54.03;31.83;;;12.20;99.90;;;;;;4848752;29;20041;-86
2021/10/07 15:12:16;;;;;;;47.22;32.90;;;12.20;99.90;;;;;;4848770;29;20068;-85
2021/10/07 15:14:42;;;;;;;49.70;30.15;;;12.20;99.90;;;;;;4863610;29;20132;-85
2021/10/07 15:17:08;;;;;;;50.75;30.50;;;12.20;99.90;;;;;;4837072;29;20044;-84
2021/10/07 15:19:35;;;;;;;40.25;28.50;;;12.20;99.90;;;;;;4838487;29;20041;-84
2021/10/07 15:22:03;;;;;;;42.45;28.35;;;12.20;99.90;;;;;;4849313;29;20045;-83
2021/10/07 15:24:31;;;;;;;41.70;28.52;;;12.20;99.90;;;;;;4857365;29;20564;-82
2021/10/07 15:26:57;;;;;;;43.90;29.38;;;12.20;99.90;;;;;;4844223;29;20128;-85
2021/10/07 15:29:23;;;;;;;40.42;28.65;;;12.20;99.90;;;;;;4837586;29;20056;-84
2021/10/07 15:31:50;;;;;;;43.67;29.58;;;12.20;99.90;;;;;;4849116;29;20104;-85
2021/10/07 15:34:16;;;;;;;44.63;29.17;;;12.10;99.90;;;;;;4838136;29;20128;-82
2021/10/07 15:36:42;;;;;;;41.65;29.63;;;12.10;99.90;;;;;;4872335;29;20041;-82
2021/10/07 15:39:08;;;;;;;43.92;28.70;;;12.10;99.90;;;;;;4837666;29;20036;-83
2021/10/07 15:41:37;;;;;;;43.30;30.55;;;12.10;99.90;;;;;;4836386;29;20100;-84
2021/10/07 15:44:03;;;;;;;45.70;30.85;;;12.10;99.90;;;;;;4854392;29;20041;-83
2021/10/07 15:46:29;;;;;;;45.75;30.35;;;12.10;99.90;;;;;;4854445;29;20040;-83
2021/10/07 15:48:56;;;;;;;44.05;29.23;;;12.10;99.90;;;;;;4854049;29;20091;-85
2021/10/07 15:51:22;;;;;;;42.78;29.15;;;12.10;99.90;;;;;;4836815;29;20136;-84
2021/10/07 15:53:49;;;;;;;40.60;29.20;;;12.10;99.90;;;;;;4859465;29;20777;-84
2021/10/07 15:56:14;;;;;;;42.92;29.42;;;12.00;99.90;;;;;;4848870;29;20743;-85
2021/10/07 15:58:40;;;;;;;45.95;30.58;;;12.00;99.90;;;;;;4848158;29;20053;-85
2021/10/07 16:01:06;;;;;;;40.85;29.60;;;12.00;99.90;;;;;;4855571;29;20048;-85
2021/10/07 16:03:33;;;;;;;45.97;29.33;;;11.90;99.90;;;;;;4864594;29;20052;-84
2021/10/07 16:05:59;;;;;;;43.30;31.02;;;11.90;99.90;;;;;;4866291;29;20049;-84
2021/10/07 16:08:28;;;;;;;42.65;30.05;;;11.80;99.90;;;;;;4853102;29;20113;-84
2021/10/07 16:10:54;;;;;;;46.33;31.67;;;11.80;99.90;;;;;;4829704;29;20113;-85
2021/10/07 16:13:23;;;;;;;50.05;31.63;;;11.80;99.90;;;;;;4828759;29;20084;-85
2021/10/07 16:15:52;;;;;;;44.67;30.60;;;11.70;99.90;;;;;;4855637;29;20104;-85
2021/10/07 16:18:18;;;;;;;44.25;30.85;;;11.70;99.90;;;;;;4822569;29;20427;-84
2021/10/07 16:20:44;;;;;;;45.35;30.25;;;11.70;99.90;;;;;;4829481;29;20313;-86
2021/10/07 16:23:11;;;;;;;47.08;30.75;;;11.70;99.90;;;;;;4848227;29;20032;-85
2021/10/07 16:25:38;;;;;;;45.95;31.40;;;11.60;99.90;;;;;;4849649;29;20260;-86
2021/10/07 16:28:04;;;;;;;45.38;31.67;;;11.60;99.90;;;;;;4832170;29;20064;-85
2021/10/07 16:30:30;;;;;;;49.88;32.72;;;11.60;99.90;;;;;;4845343;29;20056;-85
2021/10/07 16:32:58;;;;;;;48.70;32.90;;;11.60;99.90;;;;;;4840945;29;20076;-85
2021/10/07 16:35:28;;;;;;;50.92;33.00;;;11.50;99.90;;;;;;4842813;29;20045;-85
2021/10/07 16:37:55;;;;;;;48.70;32.97;;;11.50;99.90;;;;;;4843821;29;20398;-85
2021/10/07 16:40:21;;;;;;;51.83;34.60;;;11.40;99.90;;;;;;4859784;29;21220;-84